Time;durP1;ratioP1;P1;durP2;ratioP2;P2;SDS_P1;SDS_P2;PMS_P1;PMS_P2;Temp;Humidity;BMP_temperature;BMP_pressure;BME280_temperature;BME280_humidity;BME280_pressure;Samples;Min_cycle;Max_cycle;Signal;HPM_P1;HPM_P2
2021/12/20 00:00:32;;;;;;;;;17.50;17.50;11.90;99.90;;;;;;5050836;28;11479;-50
2021/12/20 00:03:03;;;;;;;;;20.25;20.25;11.90;99.90;;;;;;5032325;28;11479;-49
2021/12/20 00:05:34;;;;;;;;;22.00;21.00;11.90;99.90;;;;;;5039091;28;11517;-51
2021/12/20 00:08:04;;;;;;;;;21.25;21.25;11.90;99.90;;;;;;5053459;28;11501;-51
2021/12/20 00:10:35;;;;;;;;;26.25;26.25;11.90;99.90;;;;;;5057850;28;11486;-52
2021/12/20 00:13:07;;;;;;;;;22.25;22.25;11.90;99.90;;;;;;5053440;28;11665;-52
2021/12/20 00:15:38;;;;;;;;;25.75;25.75;11.80;99.90;;;;;;5054231;28;11620;-49
2021/12/20 00:18:09;;;;;;;;;27.00;26.25;11.80;99.90;;;;;;5037344;28;12219;-53
2021/12/20 00:20:40;;;;;;;;;24.25;24.25;11.80;99.90;;;;;;5036121;28;11757;-52
2021/12/20 00:23:10;;;;;;;;;27.50;27.50;11.80;99.90;;;;;;5056739;28;11690;-49
2021/12/20 00:25:40;;;;;;;;;27.00;27.00;11.80;99.90;;;;;;5053580;28;11501;-51
2021/12/20 00:28:11;;;;;;;;;26.75;26.75;11.80;99.90;;;;;;5037565;28;11506;-50
2021/12/20 00:30:42;;;;;;;;;28.25;28.25;11.80;99.90;;;;;;5050649;28;11473;-48
2021/12/20 00:33:12;;;;;;;;;27.00;27.00;11.80;99.90;;;;;;5053255;28;12390;-52
2021/12/20 00:35:46;;;;;;;;;31.75;31.50;11.80;99.90;;;;;;5048894;28;11504;-51
2021/12/20 00:41:06;;;;;;;;;29.25;29.25;11.80;99.90;;;;;;5054391;28;11543;-53
2021/12/20 00:43:36;;;;;;;;;26.50;26.50;11.80;99.90;;;;;;5034262;28;11546;-52
2021/12/20 00:46:06;;;;;;;;;25.00;25.00;11.80;99.90;;;;;;5053300;28;11469;-53
2021/12/20 00:48:40;;;;;;;;;24.75;24.75;11.80;99.90;;;;;;5058054;28;11473;-53
2021/12/20 00:51:11;;;;;;;;;28.00;28.00;11.70;99.90;;;;;;5047485;28;11458;-51
2021/12/20 00:53:41;;;;;;;;;29.75;29.75;11.70;99.90;;;;;;5051762;28;11512;-52
2021/12/20 00:56:11;;;;;;;;;29.50;29.50;11.70;99.90;;;;;;5050104;28;11601;-53
2021/12/20 00:58:42;;;;;;;;;26.50;26.25;11.70;99.90;;;;;;5037707;28;12461;-50
2021/12/20 01:01:13;;;;;;;;;28.00;28.00;11.70;99.90;;;;;;5049325;28;11464;-52
2021/12/20 01:03:42;;;;;;;;;22.25;22.25;11.70;99.90;;;;;;5059162;28;11477;-53
2021/12/20 01:06:14;;;;;;;;;26.75;26.75;11.70;99.90;;;;;;5046163;28;11478;-56
2021/12/20 01:08:47;;;;;;;;;23.75;23.75;11.70;99.90;;;;;;5056444;28;11483;-56
2021/12/20 01:11:23;;;;;;;;;20.50;20.50;11.60;99.90;;;;;;5052685;28;11488;-53
2021/12/20 01:13:55;;;;;;;;;19.00;19.00;11.60;99.90;;;;;;5057287;28;11469;-54
2021/12/20 01:16:31;;;;;;;;;21.50;20.25;11.60;99.90;;;;;;5051439;28;11592;-52
2021/12/20 01:19:02;;;;;;;;;18.00;18.00;11.60;99.90;;;;;;5056231;28;11488;-56
2021/12/20 01:21:33;;;;;;;;;17.33;17.33;11.60;99.90;;;;;;5047714;28;11491;-55
2021/12/20 01:24:04;;;;;;;;;20.67;19.67;11.60;99.90;;;;;;5050257;28;11521;-51
2021/12/20 01:26:36;;;;;;;;;20.33;20.33;11.50;99.90;;;;;;5048048;28;9572;-52
2021/12/20 01:29:05;;;;;;;;;22.67;22.67;11.50;99.90;;;;;;5058808;28;8859;-52
2021/12/20 01:31:37;;;;;;;;;29.67;29.67;11.50;99.90;;;;;;5050875;28;9396;-52
2021/12/20 01:34:07;;;;;;;;;24.33;24.33;11.50;99.90;;;;;;5053490;28;9016;-52
2021/12/20 01:36:38;;;;;;;;;34.75;32.50;11.50;99.90;;;;;;5053740;28;8827;-54
2021/12/20 01:39:10;;;;;;;;;32.50;31.25;11.40;99.90;;;;;;5052796;28;9591;-52
2021/12/20 01:41:44;;;;;;;;;37.25;35.25;11.40;99.90;;;;;;5052942;28;8836;-53
2021/12/20 01:44:14;;;;;;;;;43.75;39.00;11.40;99.90;;;;;;5048750;28;8846;-53
2021/12/20 01:46:45;;;;;;;;;45.50;41.00;11.40;99.90;;;;;;5050599;28;9565;-53
2021/12/20 01:49:16;;;;;;;;;53.50;45.75;11.40;99.90;;;;;;5027974;28;8825;-52
2021/12/20 01:52:01;;;;;;;;;52.75;45.50;11.40;99.90;;;;;;5047272;28;8847;-52
2021/12/20 01:54:34;;;;;;;;;64.50;54.00;11.40;99.90;;;;;;5049091;28;9611;-51
2021/12/20 01:57:04;;;;;;;;;70.25;59.25;11.40;99.90;;;;;;5054341;28;8827;-54
2021/12/20 01:59:38;;;;;;;;;74.25;64.25;11.40;99.90;;;;;;5033486;28;8852;-52
2021/12/20 02:02:09;;;;;;;;;71.50;61.00;11.40;99.90;;;;;;5054118;28;8851;-49
2021/12/20 02:04:47;;;;;;;;;77.00;67.50;11.30;99.90;;;;;;5032600;28;8843;-52
2021/12/20 02:07:50;;;;;;;;;74.75;64.25;11.30;99.90;;;;;;5049387;28;8871;-53
2021/12/20 02:10:22;;;;;;;;;78.25;68.75;11.30;99.90;;;;;;5026250;28;8851;-52
2021/12/20 02:12:52;;;;;;;;;77.00;67.00;11.30;99.90;;;;;;5054117;28;8997;-55
2021/12/20 02:15:22;;;;;;;;;78.75;69.25;11.20;99.90;;;;;;5053805;28;8843;-53
2021/12/20 02:17:52;;;;;;;;;78.50;69.50;11.30;99.90;;;;;;5053830;28;8819;-53
2021/12/20 02:20:28;;;;;;;;;78.50;70.00;11.30;99.90;;;;;;5048183;28;8863;-52
2021/12/20 02:23:00;;;;;;;;;79.75;71.50;11.30;99.90;;;;;;5049762;28;8852;-50
2021/12/20 02:25:31;;;;;;;;;76.75;66.50;11.20;99.90;;;;;;5048524;28;8831;-52
2021/12/20 02:28:08;;;;;;;;;74.25;63.75;11.20;99.90;;;;;;5038955;28;8894;-50
2021/12/20 02:30:51;;;;;;;;;72.75;62.00;11.20;99.90;;;;;;5051935;28;8908;-55
2021/12/20 02:39:06;;;;;;;;;47.67;42.67;11.10;99.90;;;;;;5053142;28;9529;-53
2021/12/20 02:41:37;;;;;;;;;48.67;43.00;11.20;99.90;;;;;;5051401;28;8989;-52
2021/12/20 02:44:16;;;;;;;;;46.33;40.00;11.10;99.90;;;;;;5046079;28;8855;-50
2021/12/20 02:49:28;;;;;;;;;37.67;35.00;11.10;99.90;;;;;;5033912;28;8861;-51
2021/12/20 02:52:06;;;;;;;;;36.33;34.33;11.10;99.90;;;;;;5046845;28;8835;-53
2021/12/20 02:54:38;;;;;;;;;32.00;30.67;11.10;99.90;;;;;;5050565;28;9579;-49
2021/12/20 02:57:09;;;;;;;;;36.00;34.33;11.10;99.90;;;;;;5037086;28;8844;-49
2021/12/20 02:59:42;;;;;;;;;30.33;29.67;11.10;99.90;;;;;;5047975;28;8874;-52
2021/12/20 03:02:14;;;;;;;;;30.67;30.33;11.10;99.90;;;;;;5057218;28;8851;-57
2021/12/20 03:04:46;;;;;;;;;29.00;29.00;11.10;99.90;;;;;;5049757;28;8834;-56
2021/12/20 03:07:22;;;;;;;;;27.67;27.33;11.00;99.90;;;;;;5054743;28;9663;-51
2021/12/20 03:10:00;;;;;;;;;25.67;25.67;11.00;99.90;;;;;;5051617;28;8816;-55
2021/12/20 03:12:32;;;;;;;;;25.00;22.33;11.00;99.90;;;;;;5055381;28;8859;-53
2021/12/20 03:15:18;;;;;;;;;26.00;26.00;11.00;99.90;;;;;;5038575;28;8858;-51
2021/12/20 03:17:49;;;;;;;;;25.50;24.75;11.00;99.90;;;;;;5056046;28;8906;-52
2021/12/20 03:20:23;;;;;;;;;21.25;21.25;11.00;99.90;;;;;;5048700;28;8867;-52
2021/12/20 03:22:54;;;;;;;;;25.00;23.75;11.00;99.90;;;;;;5046004;28;8831;-50
2021/12/20 03:25:25;;;;;;;;;24.00;24.00;11.00;99.90;;;;;;5050694;28;11498;-51
2021/12/20 03:27:55;;;;;;;;;25.75;25.75;10.90;99.90;;;;;;5060329;28;11502;-52
2021/12/20 03:30:26;;;;;;;;;21.50;20.00;11.00;99.90;;;;;;5051826;28;11523;-52
2021/12/20 03:32:56;;;;;;;;;24.25;23.50;10.90;99.90;;;;;;5038045;28;11551;-51
2021/12/20 03:35:27;;;;;;;;;24.50;24.50;10.90;99.90;;;;;;5050872;28;11502;-52
2021/12/20 03:37:57;;;;;;;;;28.25;28.25;10.90;99.90;;;;;;5040329;28;11470;-52
2021/12/20 03:40:28;;;;;;;;;23.75;23.75;10.90;99.90;;;;;;5033276;28;11514;-51
2021/12/20 03:43:00;;;;;;;;;23.00;23.00;10.90;99.90;;;;;;5055509;28;11499;-53
2021/12/20 03:45:31;;;;;;;;;28.25;28.25;10.90;99.90;;;;;;5051962;28;11513;-54
2021/12/20 03:48:02;;;;;;;;;24.50;24.50;10.90;99.90;;;;;;5037055;28;11518;-52
2021/12/20 03:50:33;;;;;;;;;28.00;28.00;10.90;99.90;;;;;;5033987;28;12209;-52
2021/12/20 03:53:04;;;;;;;;;20.75;20.75;10.80;99.90;;;;;;5052446;28;11505;-52
2021/12/20 03:55:34;;;;;;;;;24.50;24.50;10.80;99.90;;;;;;5037939;28;11563;-54
2021/12/20 03:58:06;;;;;;;;;24.50;24.50;10.80;99.90;;;;;;5052761;28;11540;-53
2021/12/20 04:00:36;;;;;;;;;23.75;23.75;10.80;99.90;;;;;;5051704;28;11499;-55
2021/12/20 04:03:12;;;;;;;;;17.25;17.25;10.80;99.90;;;;;;5052412;28;11545;-54
2021/12/20 04:05:46;;;;;;;;;23.50;23.50;10.80;99.90;;;;;;5050739;28;11518;-55
2021/12/20 04:08:16;;;;;;;;;21.00;21.00;10.80;99.90;;;;;;5055107;28;11562;-54
2021/12/20 04:10:48;;;;;;;;;23.50;23.50;10.80;99.90;;;;;;5054358;28;11521;-52
2021/12/20 04:13:19;;;;;;;;;21.50;21.50;10.80;99.90;;;;;;5055455;28;11501;-53
2021/12/20 04:15:50;;;;;;;;;24.00;24.00;10.80;99.90;;;;;;5056071;28;11476;-49
2021/12/20 04:18:23;;;;;;;;;24.00;24.00;10.80;99.90;;;;;;5035190;28;11541;-53
2021/12/20 04:20:53;;;;;;;;;23.00;23.00;10.80;99.90;;;;;;5053037;28;11524;-54
2021/12/20 04:23:24;;;;;;;;;22.75;21.50;10.80;99.90;;;;;;5052345;28;11462;-53
2021/12/20 04:25:55;;;;;;;;;19.25;19.25;10.80;99.90;;;;;;5041191;28;11551;-53
2021/12/20 04:28:28;;;;;;;;;22.00;21.50;10.70;99.90;;;;;;5035665;28;11619;-52
2021/12/20 04:30:59;;;;;;;;;26.50;26.50;10.80;99.90;;;;;;5042200;28;12187;-53
2021/12/20 04:33:29;;;;;;;;;24.00;23.25;10.60;99.90;;;;;;5036559;28;11526;-52
2021/12/20 04:36:00;;;;;;;;;23.75;23.75;10.70;99.90;;;;;;5039180;28;11575;-52
2021/12/20 04:38:32;;;;;;;;;21.00;21.00;10.70;99.90;;;;;;5047888;28;11494;-53
2021/12/20 04:41:03;;;;;;;;;22.75;22.75;10.70;99.90;;;;;;5057087;28;12253;-53
2021/12/20 04:43:34;;;;;;;;;22.00;22.00;10.70;99.90;;;;;;5051667;28;11588;-53
2021/12/20 04:46:05;;;;;;;;;20.50;20.50;10.70;99.90;;;;;;5049845;28;12223;-54
2021/12/20 04:48:35;;;;;;;;;21.25;21.25;10.60;99.90;;;;;;5051979;28;13395;-53
2021/12/20 04:51:06;;;;;;;;;10.50;10.50;10.60;99.90;;;;;;5059412;28;11627;-54
2021/12/20 04:53:36;;;;;;;;;15.00;13.50;10.60;99.90;;;;;;5051885;28;11481;-52
2021/12/20 04:56:06;;;;;;;;;23.75;23.75;10.60;99.90;;;;;;5050141;28;11468;-51
2021/12/20 04:58:36;;;;;;;;;20.75;20.75;10.60;99.90;;;;;;5051272;28;11829;-53
2021/12/20 05:01:08;;;;;;;;;23.25;23.25;10.60;99.90;;;;;;5049530;28;11530;-52
2021/12/20 05:03:39;;;;;;;;;23.00;23.00;10.60;99.90;;;;;;5036796;28;11537;-51
2021/12/20 05:06:14;;;;;;;;;12.50;11.75;10.60;99.90;;;;;;5048903;28;11480;-53
2021/12/20 05:08:48;;;;;;;;;21.75;21.75;10.60;99.90;;;;;;5052120;28;12558;-53
2021/12/20 05:11:20;;;;;;;;;27.25;27.25;10.60;99.90;;;;;;5051183;28;11449;-51
2021/12/20 05:13:53;;;;;;;;;21.75;21.75;10.60;99.90;;;;;;5054813;28;11487;-53
2021/12/20 05:16:24;;;;;;;;;21.75;21.75;10.50;99.90;;;;;;5044630;28;11524;-50
2021/12/20 05:18:54;;;;;;;;;22.25;22.25;10.50;99.90;;;;;;5048407;28;11474;-50
2021/12/20 05:21:26;;;;;;;;;21.00;21.00;10.50;99.90;;;;;;5046035;28;11505;-53
2021/12/20 05:23:57;;;;;;;;;21.50;21.50;10.40;99.90;;;;;;5056135;28;11485;-53
2021/12/20 05:26:28;;;;;;;;;19.00;19.00;10.50;99.90;;;;;;5055033;28;11498;-53
2021/12/20 05:29:00;;;;;;;;;20.75;20.75;10.50;99.90;;;;;;5040422;28;12265;-53
2021/12/20 05:31:34;;;;;;;;;23.50;22.00;10.50;99.90;;;;;;5030056;28;11650;-52
2021/12/20 05:34:07;;;;;;;;;28.25;25.25;10.50;99.90;;;;;;5037537;28;11669;-52
2021/12/20 05:36:39;;;;;;;;;22.50;22.50;10.40;99.90;;;;;;5033729;28;11467;-53
2021/12/20 05:39:13;;;;;;;;;21.50;21.50;10.40;99.90;;;;;;4703856;28;10000382;-53
2021/12/20 05:41:44;;;;;;;;;20.25;20.25;10.50;99.90;;;;;;5054617;28;8831;-52
2021/12/20 05:44:15;;;;;;;;;11.25;11.25;10.50;99.90;;;;;;5050573;28;11506;-51
2021/12/20 05:46:45;;;;;;;;;18.50;18.50;10.40;99.90;;;;;;5048418;28;11489;-52
2021/12/20 05:49:16;;;;;;;;;21.75;21.75;10.40;99.90;;;;;;5046638;28;12361;-52
2021/12/20 05:51:47;;;;;;;;;16.00;16.00;10.40;99.90;;;;;;5034682;28;11458;-52
2021/12/20 05:54:17;;;;;;;;;21.25;21.25;10.40;99.90;;;;;;5046288;28;11482;-51
2021/12/20 05:56:49;;;;;;;;;18.25;18.25;10.40;99.90;;;;;;5051867;28;11500;-52
2021/12/20 05:59:19;;;;;;;;;22.00;20.25;10.40;99.90;;;;;;5050180;28;11496;-50
2021/12/20 06:01:51;;;;;;;;;17.75;17.75;10.40;99.90;;;;;;5054036;28;11508;-51
2021/12/20 06:04:22;;;;;;;;;20.25;20.25;10.30;99.90;;;;;;5031275;28;11488;-51
2021/12/20 06:06:52;;;;;;;;;20.00;18.50;10.30;99.90;;;;;;5052373;28;11462;-53
2021/12/20 06:09:23;;;;;;;;;19.00;19.00;10.30;99.90;;;;;;5047916;28;11462;-53
2021/12/20 06:11:54;;;;;;;;;19.25;19.25;10.30;99.90;;;;;;5047196;28;11483;-49
2021/12/20 06:14:24;;;;;;;;;16.75;16.75;10.30;99.90;;;;;;5053301;28;11500;-49
2021/12/20 06:16:57;;;;;;;;;21.25;20.25;10.30;99.90;;;;;;5030759;28;11558;-53
2021/12/20 06:19:27;;;;;;;;;18.75;16.50;10.30;99.90;;;;;;5034152;28;11593;-53
2021/12/20 06:21:59;;;;;;;;;17.25;16.25;10.20;99.90;;;;;;5042434;28;12664;-51
2021/12/20 06:24:33;;;;;;;;;14.25;14.25;10.20;99.90;;;;;;5052634;28;11496;-51
2021/12/20 06:27:04;;;;;;;;;18.00;18.00;10.30;99.90;;;;;;5048109;28;11662;-53
2021/12/20 06:29:35;;;;;;;;;12.25;12.25;10.30;99.90;;;;;;5046198;28;11483;-51
2021/12/20 06:32:06;;;;;;;;;16.25;16.25;10.20;99.90;;;;;;5030465;28;11487;-50
2021/12/20 06:34:39;;;;;;;;;20.25;17.25;10.20;99.90;;;;;;5051699;28;11550;-52
2021/12/20 06:37:13;;;;;;;;;20.00;20.00;10.20;99.90;;;;;;5040536;28;11508;-51
2021/12/20 06:39:43;;;;;;;;;17.00;17.00;10.20;99.90;;;;;;5048013;28;11486;-49
2021/12/20 06:42:14;;;;;;;;;18.25;18.25;10.20;99.90;;;;;;5044931;28;11550;-51
2021/12/20 06:44:45;;;;;;;;;18.25;18.25;10.20;99.90;;;;;;5033163;28;11465;-49
2021/12/20 06:47:16;;;;;;;;;14.50;14.50;10.20;99.90;;;;;;5051672;28;11510;-52
2021/12/20 06:49:47;;;;;;;;;17.50;17.50;10.20;99.90;;;;;;5049748;28;11496;-50
2021/12/20 06:52:17;;;;;;;;;17.25;17.25;10.20;99.90;;;;;;5044561;28;11471;-54
2021/12/20 06:54:49;;;;;;;;;23.50;21.50;10.10;99.90;;;;;;5041990;28;11680;-51
2021/12/20 06:57:20;;;;;;;;;14.75;14.75;10.10;99.90;;;;;;5043689;28;11560;-51
2021/12/20 06:59:51;;;;;;;;;21.25;20.00;10.10;99.90;;;;;;5044345;28;11472;-49
2021/12/20 07:02:22;;;;;;;;;18.00;18.00;10.10;99.90;;;;;;5034432;28;11556;-52
2021/12/20 07:04:52;;;;;;;;;16.00;16.00;10.10;99.90;;;;;;5050113;28;11515;-54
2021/12/20 07:07:23;;;;;;;;;17.00;17.00;10.10;99.90;;;;;;5027972;28;11616;-50
2021/12/20 07:09:54;;;;;;;;;19.00;17.50;10.10;99.90;;;;;;5030927;28;11978;-53
2021/12/20 07:12:27;;;;;;;;;19.25;19.25;10.10;99.90;;;;;;5051914;28;11517;-51
2021/12/20 07:14:59;;;;;;;;;16.00;16.00;10.00;99.90;;;;;;5047649;28;11478;-51
2021/12/20 07:17:30;;;;;;;;;17.25;17.25;10.00;99.90;;;;;;5048695;28;11622;-52
2021/12/20 07:20:00;;;;;;;;;15.00;15.00;10.00;99.90;;;;;;5044193;28;11490;-53
2021/12/20 07:22:32;;;;;;;;;11.75;11.75;10.00;99.90;;;;;;5043194;28;11475;-52
2021/12/20 07:25:04;;;;;;;;;15.50;15.50;10.00;99.90;;;;;;5037077;28;11519;-49
2021/12/20 07:27:35;;;;;;;;;15.75;14.25;10.00;99.90;;;;;;5026513;28;11557;-52
2021/12/20 07:30:07;;;;;;;;;18.00;18.00;10.00;99.90;;;;;;5043101;28;11524;-51
2021/12/20 07:32:38;;;;;;;;;16.50;16.50;10.00;99.90;;;;;;5049373;28;13567;-53
2021/12/20 07:35:10;;;;;;;;;16.25;14.50;10.00;99.90;;;;;;5041349;28;13380;-51
2021/12/20 07:37:44;;;;;;;;;14.50;14.00;10.00;99.90;;;;;;5051191;28;11441;-52
2021/12/20 07:40:15;;;;;;;;;16.25;14.00;9.90;99.90;;;;;;5048797;28;11509;-49
2021/12/20 07:42:46;;;;;;;;;16.50;15.00;9.90;99.90;;;;;;5053202;28;11509;-51
2021/12/20 07:45:17;;;;;;;;;19.00;19.00;10.00;99.90;;;;;;5052567;28;11524;-51
2021/12/20 07:47:50;;;;;;;;;15.25;15.25;10.00;99.90;;;;;;5033353;28;11462;-52
2021/12/20 07:50:21;;;;;;;;;14.00;14.00;9.90;99.90;;;;;;5049660;28;11524;-54
2021/12/20 07:52:51;;;;;;;;;11.00;11.00;9.90;99.90;;;;;;5035107;28;11636;-52
2021/12/20 07:55:21;;;;;;;;;16.75;16.75;9.90;99.90;;;;;;5038966;28;12173;-49
2021/12/20 07:57:52;;;;;;;;;14.50;14.50;9.90;99.90;;;;;;5050512;28;11604;-52
2021/12/20 08:00:22;;;;;;;;;18.00;18.00;9.90;99.90;;;;;;5051663;28;11463;-52
2021/12/20 08:02:52;;;;;;;;;12.00;12.00;9.90;99.90;;;;;;5052909;28;11521;-50
2021/12/20 08:05:25;;;;;;;;;16.75;14.75;9.90;99.90;;;;;;5054955;28;12182;-52
2021/12/20 08:07:56;;;;;;;;;13.00;13.00;9.90;99.90;;;;;;5016475;28;11487;-53
2021/12/20 08:10:28;;;;;;;;;16.50;15.75;9.90;99.90;;;;;;5053602;28;11483;-53
2021/12/20 08:13:00;;;;;;;;;13.50;13.50;9.90;99.90;;;;;;5050792;28;11554;-52
2021/12/20 08:15:31;;;;;;;;;19.00;19.00;9.90;99.90;;;;;;5039089;28;11548;-52
2021/12/20 08:18:02;;;;;;;;;15.25;15.25;9.90;99.90;;;;;;5036966;28;11478;-52
2021/12/20 08:20:33;;;;;;;;;14.50;14.50;9.90;99.90;;;;;;5052513;28;11533;-55
2021/12/20 08:23:03;;;;;;;;;16.75;16.75;9.80;99.90;;;;;;5043645;28;11470;-52
2021/12/20 08:25:39;;;;;;;;;11.50;11.50;9.80;99.90;;;;;;5052331;28;11428;-52
2021/12/20 08:28:10;;;;;;;;;12.75;12.75;9.80;99.90;;;;;;5051511;28;11552;-52
2021/12/20 08:30:44;;;;;;;;;15.75;15.75;9.80;99.90;;;;;;5036083;28;11510;-49
2021/12/20 08:33:15;;;;;;;;;14.50;13.00;9.80;99.90;;;;;;5062043;28;11503;-50
2021/12/20 08:35:49;;;;;;;;;13.25;13.25;9.80;99.90;;;;;;5055810;28;11585;-50
2021/12/20 08:38:20;;;;;;;;;13.75;13.75;9.80;99.90;;;;;;5055502;28;11452;-49
2021/12/20 08:40:52;;;;;;;;;15.50;15.50;9.70;99.90;;;;;;5035799;28;11505;-52
2021/12/20 08:43:23;;;;;;;;;13.50;13.25;9.70;99.90;;;;;;5036302;28;11462;-50
2021/12/20 08:45:54;;;;;;;;;13.00;13.00;9.60;99.90;;;;;;5047713;28;11505;-50
2021/12/20 08:48:24;;;;;;;;;12.00;12.00;9.60;99.90;;;;;;5054141;28;11493;-52
2021/12/20 08:50:54;;;;;;;;;18.00;16.50;9.50;99.90;;;;;;5026540;28;11470;-53
2021/12/20 08:53:25;;;;;;;;;17.00;17.00;9.50;99.90;;;;;;5053008;28;11475;-54
2021/12/20 08:55:57;;;;;;;;;18.50;17.50;9.50;99.90;;;;;;5047309;28;11595;-52
2021/12/20 08:58:28;;;;;;;;;15.50;15.50;9.50;99.90;;;;;;5054487;28;12218;-54
2021/12/20 09:00:59;;;;;;;;;17.00;16.50;9.50;99.90;;;;;;5051195;28;11511;-53
2021/12/20 09:03:35;;;;;;;;;15.25;15.25;9.40;99.90;;;;;;5051923;28;12283;-52
2021/12/20 09:06:08;;;;;;;;;16.00;16.00;9.40;99.90;;;;;;5047477;28;12218;-54
2021/12/20 09:08:42;;;;;;;;;17.00;17.00;9.40;99.90;;;;;;5049074;28;11624;-52
2021/12/20 09:11:14;;;;;;;;;13.50;13.50;9.40;99.90;;;;;;5048906;28;11632;-53
2021/12/20 09:14:00;;;;;;;;;15.50;13.75;9.30;99.90;;;;;;5052223;28;11489;-51
2021/12/20 09:16:32;;;;;;;;;15.00;15.00;9.30;99.90;;;;;;5051111;28;12338;-52
2021/12/20 09:19:07;;;;;;;;;16.25;16.25;9.30;99.90;;;;;;5041623;28;11509;-51
2021/12/20 09:21:38;;;;;;;;;14.75;14.75;9.30;99.90;;;;;;5043877;28;11563;-51
2021/12/20 09:24:13;;;;;;;;;15.00;15.00;9.30;99.90;;;;;;5058725;28;11673;-53
2021/12/20 09:26:44;;;;;;;;;15.50;15.50;9.20;99.90;;;;;;5035291;28;11476;-50
2021/12/20 09:29:18;;;;;;;;;17.25;17.25;9.20;99.90;;;;;;5051707;28;11485;-51
2021/12/20 09:31:49;;;;;;;;;18.25;18.25;9.20;99.90;;;;;;5044345;28;11511;-50
2021/12/20 09:34:20;;;;;;;;;16.00;16.00;9.10;99.90;;;;;;5049973;28;11502;-52
2021/12/20 09:36:54;;;;;;;;;16.75;16.75;9.10;99.90;;;;;;5043887;28;11464;-50
2021/12/20 09:39:24;;;;;;;;;16.25;16.25;9.10;99.90;;;;;;5047339;28;11432;-51
2021/12/20 09:42:01;;;;;;;;;18.50;18.50;9.10;99.90;;;;;;5042861;28;11534;-49
2021/12/20 09:44:33;;;;;;;;;18.25;17.50;9.00;99.90;;;;;;5016551;28;11459;-53
2021/12/20 09:47:04;;;;;;;;;19.25;19.25;9.00;99.90;;;;;;5046053;28;11474;-53
2021/12/20 09:49:36;;;;;;;;;16.75;16.75;9.00;99.90;;;;;;5032637;28;11534;-52
2021/12/20 09:52:07;;;;;;;;;20.25;17.25;9.00;99.90;;;;;;5039256;28;11557;-49
2021/12/20 09:54:39;;;;;;;;;16.75;16.75;9.00;99.90;;;;;;5046184;28;11548;-55
2021/12/20 09:57:13;;;;;;;;;21.00;19.25;8.90;99.90;;;;;;5049422;28;11465;-51
2021/12/20 09:59:45;;;;;;;;;20.25;20.25;8.90;99.90;;;;;;5047655;28;11464;-52
2021/12/20 10:02:19;;;;;;;;;15.50;15.50;9.00;99.90;;;;;;5047615;28;11498;-51
2021/12/20 10:04:50;;;;;;;;;19.50;19.50;9.10;99.90;;;;;;5031972;28;12075;-48
2021/12/20 10:07:23;;;;;;;;;17.50;16.00;9.20;99.90;;;;;;5044842;28;11450;-48
2021/12/20 10:09:54;;;;;;;;;16.00;16.00;9.20;99.90;;;;;;5040910;28;11447;-52
2021/12/20 10:12:27;;;;;;;;;11.00;11.00;9.20;99.90;;;;;;5048210;28;11534;-54
2021/12/20 10:15:07;;;;;;;;;13.75;13.75;9.10;99.90;;;;;;5048254;28;11640;-53
2021/12/20 10:17:58;;;;;;;;;12.25;12.25;9.20;99.90;;;;;;5030610;28;11477;-49
2021/12/20 10:20:33;;;;;;;;;11.50;10.00;9.20;99.90;;;;;;5043609;28;11466;-49
2021/12/20 10:23:12;;;;;;;;;16.25;16.25;9.20;99.90;;;;;;5043819;28;11475;-52
2021/12/20 10:25:47;;;;;;;;;12.00;10.25;9.20;99.90;;;;;;5048090;28;11464;-48
2021/12/20 10:28:23;;;;;;;;;13.50;13.50;9.20;99.90;;;;;;5031119;28;12317;-49
2021/12/20 10:31:00;;;;;;;;;11.00;11.00;9.20;99.90;;;;;;5044424;28;11655;-53
2021/12/20 10:33:30;;;;;;;;;13.50;13.00;9.20;99.90;;;;;;5040011;28;11459;-52
2021/12/20 10:36:13;;;;;;;;;11.75;11.75;9.20;99.90;;;;;;5047326;28;11533;-51
2021/12/20 10:38:46;;;;;;;;;9.75;9.75;9.20;99.90;;;;;;5039913;28;11504;-49
2021/12/20 10:41:34;;;;;;;;;13.00;12.75;9.20;99.90;;;;;;5046077;28;11586;-49
2021/12/20 10:44:19;;;;;;;;;10.75;10.75;9.20;99.90;;;;;;5039384;28;11467;-50
2021/12/20 10:46:52;;;;;;;;;10.75;10.75;9.20;99.90;;;;;;5049396;28;11469;-50
2021/12/20 10:49:28;;;;;;;;;5.50;5.50;9.20;99.90;;;;;;5045652;28;12225;-51
2021/12/20 10:52:01;;;;;;;;;10.75;10.75;9.30;99.90;;;;;;5043958;28;12186;-49
2021/12/20 10:54:32;;;;;;;;;6.50;6.50;9.20;99.90;;;;;;5042023;28;11513;-49
2021/12/20 10:57:06;;;;;;;;;14.75;14.75;9.20;99.90;;;;;;5029019;28;11450;-51
2021/12/20 10:59:38;;;;;;;;;12.75;12.75;9.20;99.90;;;;;;5025859;28;12214;-48
2021/12/20 11:04:59;;;;;;;;;10.00;10.00;9.20;99.90;;;;;;5041577;28;11495;-48
2021/12/20 11:10:07;;;;;;;;;10.50;10.50;9.30;99.90;;;;;;5046781;28;11449;-50
2021/12/20 11:12:39;;;;;;;;;13.00;13.00;9.20;99.90;;;;;;5050704;28;11637;-50
2021/12/20 11:15:14;;;;;;;;;12.00;12.00;9.20;99.90;;;;;;5043882;28;11456;-50
2021/12/20 11:17:47;;;;;;;;;13.75;13.75;9.20;99.90;;;;;;5055010;28;11641;-52
2021/12/20 11:20:22;;;;;;;;;17.00;17.00;9.30;99.90;;;;;;5047821;28;11478;-51
2021/12/20 11:23:03;;;;;;;;;12.50;12.50;9.30;99.90;;;;;;5035407;28;11485;-49
2021/12/20 11:25:34;;;;;;;;;11.50;11.00;9.20;99.90;;;;;;5052272;28;11446;-51
2021/12/20 11:28:05;;;;;;;;;15.75;15.75;9.30;99.90;;;;;;5054235;28;11468;-50
2021/12/20 11:30:35;;;;;;;;;14.50;14.50;9.30;99.90;;;;;;5053038;28;11450;-51
2021/12/20 11:33:07;;;;;;;;;17.00;16.75;9.30;99.90;;;;;;5041828;28;11481;-49
2021/12/20 11:35:37;;;;;;;;;15.50;13.25;9.30;99.90;;;;;;5043774;28;11473;-51
2021/12/20 11:38:09;;;;;;;;;14.25;14.25;9.30;99.90;;;;;;5043464;28;11458;-47
2021/12/20 11:40:45;;;;;;;;;14.00;14.00;9.30;99.90;;;;;;5049158;28;11479;-52
2021/12/20 11:43:17;;;;;;;;;16.50;16.50;9.30;99.90;;;;;;5034734;28;11496;-52
2021/12/20 11:45:50;;;;;;;;;11.75;11.75;9.30;99.90;;;;;;5032449;28;12294;-52
2021/12/20 11:48:22;;;;;;;;;12.25;12.25;9.30;99.90;;;;;;5021960;28;12408;-53
2021/12/20 11:50:58;;;;;;;;;13.00;13.00;9.30;99.90;;;;;;5052279;28;11671;-52
2021/12/20 11:53:35;;;;;;;;;16.50;16.50;9.20;99.90;;;;;;5060188;28;11524;-50
2021/12/20 11:56:07;;;;;;;;;15.75;15.75;9.20;99.90;;;;;;5052512;28;11648;-53
2021/12/20 11:58:44;;;;;;;;;15.25;15.25;9.20;99.90;;;;;;5053541;28;12657;-52
2021/12/20 12:01:18;;;;;;;;;11.75;11.75;9.20;99.90;;;;;;5030692;28;11469;-52
2021/12/20 12:03:56;;;;;;;;;11.00;11.00;9.30;99.90;;;;;;5049465;28;11445;-48
2021/12/20 12:06:31;;;;;;;;;13.00;13.00;9.20;99.90;;;;;;5043564;28;11507;-48
2021/12/20 12:09:03;;;;;;;;;12.00;12.00;9.20;99.90;;;;;;5047837;28;11647;-52
2021/12/20 12:11:55;;;;;;;;;15.25;15.25;9.20;99.90;;;;;;5050198;28;11521;-49
2021/12/20 12:14:34;;;;;;;;;17.75;17.75;9.20;99.90;;;;;;5053909;28;11506;-51
2021/12/20 12:17:09;;;;;;;;;14.25;14.25;9.20;99.90;;;;;;5053903;28;11494;-51
2021/12/20 12:19:52;;;;;;;;;14.25;14.25;9.20;99.90;;;;;;5034829;28;11477;-51
2021/12/20 12:22:46;;;;;;;;;13.75;13.75;9.20;99.90;;;;;;5036415;28;11478;-51
2021/12/20 12:25:41;;;;;;;;;16.25;16.25;9.20;99.90;;;;;;5049839;28;11457;-48
2021/12/20 12:28:17;;;;;;;;;16.00;16.00;9.20;99.90;;;;;;5035289;28;11534;-50
2021/12/20 12:31:05;;;;;;;;;14.50;14.50;9.20;99.90;;;;;;5054371;28;11514;-51
2021/12/20 12:33:40;;;;;;;;;15.75;15.75;9.20;99.90;;;;;;5033333;28;11453;-52
2021/12/20 12:36:28;;;;;;;;;17.25;17.25;9.20;99.90;;;;;;5051253;28;11472;-51
2021/12/20 12:39:06;;;;;;;;;15.50;15.50;9.20;99.90;;;;;;5055587;28;11452;-52
2021/12/20 12:41:48;;;;;;;;;16.75;16.00;9.20;99.90;;;;;;5049506;28;11452;-52
2021/12/20 12:44:24;;;;;;;;;16.50;15.75;9.20;99.90;;;;;;5052136;28;11453;-53
2021/12/20 12:47:04;;;;;;;;;15.00;15.00;9.20;99.90;;;;;;5040956;28;12228;-52
2021/12/20 12:49:38;;;;;;;;;16.75;16.75;9.20;99.90;;;;;;5053448;28;11470;-53
2021/12/20 12:52:29;;;;;;;;;16.75;16.75;9.20;99.90;;;;;;5049801;28;11533;-51
2021/12/20 12:55:14;;;;;;;;;14.75;14.75;9.20;99.90;;;;;;5049727;28;11656;-52
2021/12/20 12:57:45;;;;;;;;;13.75;13.75;9.20;99.90;;;;;;5048259;28;11575;-52
2021/12/20 13:00:26;;;;;;;;;18.25;17.25;9.20;99.90;;;;;;5053221;28;11471;-49
2021/12/20 13:03:11;;;;;;;;;18.00;17.75;9.20;99.90;;;;;;5052093;28;11471;-51
2021/12/20 13:05:45;;;;;;;;;17.00;17.00;9.20;99.90;;;;;;5036530;28;11444;-51
2021/12/20 13:08:19;;;;;;;;;17.25;17.25;9.20;99.90;;;;;;5031893;28;11492;-51
2021/12/20 13:10:52;;;;;;;;;17.50;17.50;9.20;99.90;;;;;;5054453;28;11484;-51
2021/12/20 13:13:29;;;;;;;;;14.75;14.75;9.20;99.90;;;;;;5053943;28;11477;-53
2021/12/20 13:16:04;;;;;;;;;15.75;15.75;9.20;99.90;;;;;;5054966;28;11462;-52
2021/12/20 13:18:39;;;;;;;;;11.50;11.50;9.20;99.90;;;;;;5047668;28;11574;-53